Pagrindinis puslapis
METAR-TAF:

METAR-TAF

Oro uostai :

Barankabermecha, Kolumbija

platuma: 07-01N, ilguma: 073-48W, Aukštis: 126 m

Dabartinis oras

Ataskaita buvo paskelbta 28 minutes, ne 00:00 UTC
Vėjas 3 kt iš Šiaurės
Temperatūra 27°C
Drėgmė 84%
Slėgis 1008 hPa
Matomumas 10 km arba daugiau
Mažai debesys ne aukštis 1500 ft

METAR: SKEJ 230000Z 35003KT 9999 FEW015 27/24 A2978

Laikas: 19:28 (00:28 UTC)


TAF: trūkstamas

Orai ataskaitas ir orų prognozės (METAR, TAF).

turimą stotys yra geltonos ir raudonos taškus žemėlapyje.

Perkelti pele per norėdami pamatyti stoties vardą.

Tada spustelėkite, norėdami matyti oro stebėjimo ir prognozės.

Norėdami pakeisti žemėlapį: spustelėkite ant žalios mygtukų su juodo kryžiaus žemyn,; žalią mygtuką su brūkšneliu, jei norite nutolinti; arba žalių rodyklių gretimoms žemėlapius.


METAR-TAF: